ADDS METAR Data INFO
IDs: Format: Raw Decoded Include TAF

Data at: 0958 UTC 22 May 2018

KFST 220953Z AUTO 14011KT 10SM CLR 21/16 A2997 RMK AO2 SLP100 T02110161
KFST 220905Z AUTO 20004KT 10SM SCT027 21/16 A2999 RMK AO2 T02110161
KFST 220853Z AUTO 20003KT 10SM BKN028 21/16 A2999 RMK AO2 SLP106 T02110161 53015
KFST 220753Z AUTO 15011KT 10SM CLR 21/16 A2996 RMK AO2 SLP097 T02110161
KFST 220653Z AUTO 14014G24KT 10SM CLR 22/16 A2994 RMK AO2 PK WND 13027/0611 SLP088 T02220161
KFST 220553Z AUTO 14017G25KT 10SM CLR 23/16 A2994 RMK AO2 PK WND 13029/0519 SLP092 T02280161 10294 20228 403170167 53003
KFST 220453Z AUTO 13019G27KT 10SM CLR 23/16 A2994 RMK AO2 PK WND 14028/0423 SLP090 T02330156
KFST 220353Z AUTO 13019G26KT 10SM CLR 24/14 A2994 RMK AO2 PK WND 13026/0342 SLP092 T02440144
KFST 220253Z AUTO 13016G24KT 10SM CLR 26/14 A2993 RMK AO2 PK WND 12029/0212 SLP091 T02560144 53011
KFST 220153Z AUTO 13015G27KT 10SM CLR 26/13 A2991 RMK AO2 PK WND 13027/0147 SLP085 T02610133
KFST 220053Z AUTO 14015G26KT 10SM CLR 28/13 A2990 RMK AO2 PK WND 12027/0004 SLP081 T02780128
KFST 212353Z AUTO 13018G26KT 10SM CLR 29/13 A2990 RMK AO2 PK WND 12028/2340 SLP079 T02940128 10317 20272 56017
KFST 212253Z AUTO 15015G25KT 10SM FEW070 31/12 A2991 RMK AO2 SLP084 T03060122
KFST 212153Z AUTO 13012G21KT 10SM CLR 31/11 A2993 RMK AO2 SLP087 T03110111
KFST 212053Z AUTO 14010KT 10SM CLR 31/12 A2995 RMK AO2 SLP096 T03060117 58025
KFST 211953Z AUTO 11014G20KT 10SM FEW065 29/12 A2998 RMK AO2 SLP107 T02940122
KFST 211853Z AUTO 12010G20KT 10SM CLR 29/14 A3001 RMK AO2 SLP114 T02890139
KFST 211753Z AUTO 13014G20KT 10SM FEW050 27/14 A3003 RMK AO2 SLP124 T02720139 10278 20167 58013
KFST 211653Z AUTO 10015KT 10SM FEW045 BKN055 26/13 A3005 RMK AO2 SLP131 T02560128
KFST 211553Z AUTO 10008KT 080V150 10SM SCT046 OVC060 23/14 A3007 RMK AO2 SLP139 T02330139
KFST 211453Z AUTO 13008KT 10SM OVC046 21/14 A3008 RMK AO2 SLP141 T02110139 51012
KFST 211353Z AUTO 14006KT 10SM BKN042 19/15 A3006 RMK AO2 SLP136 T01940150
KFST 211253Z AUTO 10005KT 10SM OVC040 18/14 A3006 RMK AO2 SLP133 T01830144 $
KFST 211153Z AUTO 09004KT 10SM CLR 17/14 A3004 RMK AO2 SLP128 T01670139 10211 20167 51010 $
KFST 211053Z AUTO 10006KT 10SM CLR 17/14 A3003 RMK AO2 SLP125 T01720139 $
KFST 210953Z AUTO 10007KT 10SM CLR 18/14 A3002 RMK AO2 SLP119 T01830139 $
KFST 210853Z AUTO 11009KT 10SM FEW037 19/13 A3000 RMK AO2 SLP114 T01890133 55007 $
KFST 210753Z AUTO 06005KT 10SM BKN032 19/13 A3000 RMK AO2 SLP115 T01940133 $
KFST 210653Z AUTO 09011KT 10SM BKN032 21/13 A2998 RMK AO2 SLP109 T02060133 $
KFST 210553Z AUTO 10011KT 10SM CLR 21/14 A3003 RMK AO2 SLP124 T02110139 10283 20211 403000156 55003 $
KFST 210453Z AUTO 11014KT 10SM CLR 23/14 A3002 RMK AO2 SLP122 T02280139 $
KFST 210353Z AUTO 12011KT 10SM CLR 24/14 A3003 RMK AO2 SLP127 T02390139 $
KFST 210253Z AUTO 14011G21KT 10SM CLR 24/14 A3004 RMK AO2 SLP129 T02440144 53024 $
KFST 210153Z AUTO 14014KT 10SM CLR 26/12 A3001 RMK AO2 SLP120 T02560122 $
KFST 210053Z AUTO 12017KT 10SM CLR 28/12 A2997 RMK AO2 SLP107 T02780122 $
KFST 202353Z AUTO 11015G19KT 10SM CLR 28/13 A2996 RMK AO2 SLP098 T02830128 10300 20244 56013 $
KFST 202253Z AUTO 12012G21KT 10SM FEW065 FEW095 29/13 A2997 RMK AO2 SLP098 T02940128 $